Time;durP1;ratioP1;P1;durP2;ratioP2;P2;SDS_P1;SDS_P2;PMS_P1;PMS_P2;Temp;Humidity;BMP_temperature;BMP_pressure;BME280_temperature;BME280_humidity;BME280_pressure;Samples;Min_cycle;Max_cycle;Signal;HPM_P1;HPM_P2
2023/07/14 00:01:18;144220.00;0.48;249.85;40114.00;0.13;70.09;;;;;20.80;1.00;;;;;;2318502;40;3770;-86
2023/07/14 00:06:22;52154.00;0.17;90.91;0.00;0.00;0.62;;;;;20.70;1.00;;;;;;2405348;39;2820;-87
2023/07/14 00:08:52;150657.00;0.50;260.94;0.00;0.00;0.62;;;;;20.80;1.00;;;;;;2279926;60;1695;-87
2023/07/14 00:13:49;1647960.00;5.49;2924.75;0.00;0.00;0.62;;;;;20.80;1.00;;;;;;2300379;40;3495;-86
2023/07/14 00:16:18;200993.00;0.67;347.63;0.00;0.00;0.62;;;;;20.80;1.00;;;;;;2342970;39;3700;-85
2023/07/14 00:21:26;179697.00;0.60;310.97;0.00;0.00;0.62;;;;;20.70;1.00;;;;;;2378792;56;1824;-85
2023/07/14 00:23:57;242740.00;0.81;419.46;39840.00;0.13;69.61;;;;;20.50;1.00;;;;;;2316319;39;3762;-85
2023/07/14 00:29:02;94256.00;0.31;163.66;0.00;0.00;0.62;;;;;20.60;1.00;;;;;;2395925;40;2126;-85
2023/07/14 00:36:26;1038057.00;3.46;1799.99;0.00;0.00;0.62;;;;;20.20;1.00;;;;;;2281531;60;1398;-84
2023/07/14 00:38:53;194311.00;0.65;336.13;0.00;0.00;0.62;;;;;20.40;1.00;;;;;;2420209;39;3895;-85
2023/07/14 00:44:11;1172852.00;3.91;2041.21;0.00;0.00;0.62;;;;;20.20;1.00;;;;;;2277160;60;1398;-84
2023/07/14 00:46:38;236687.00;0.79;409.05;0.00;0.00;0.62;;;;;20.20;1.00;;;;;;2275950;60;1090;-86
2023/07/14 00:49:11;152493.00;0.51;264.10;0.00;0.00;0.62;;;;;20.10;1.00;;;;;;2275754;60;997;-85
2023/07/14 00:51:41;315498.00;1.05;544.56;0.00;0.00;0.62;;;;;20.10;1.00;;;;;;2275869;61;1923;-84
2023/07/14 00:56:47;382110.00;1.27;659.05;0.00;0.00;0.62;;;;;20.00;1.00;;;;;;2371003;39;2971;-86
2023/07/14 00:59:16;502963.00;1.68;866.93;0.00;0.00;0.62;;;;;19.90;1.00;;;;;;2333259;55;3687;-85
2023/07/14 01:02:20;256586.00;0.86;443.28;0.00;0.00;0.62;;;;;20.00;1.00;;;;;;2315163;39;3595;-84
2023/07/14 01:04:53;552939.00;1.84;953.03;74047.00;0.25;128.75;;;;;20.00;1.00;;;;;;2279156;55;3750;-85
2023/07/14 01:07:27;433438.00;1.44;747.30;67996.00;0.23;118.30;;;;;19.60;1.00;;;;;;2279706;60;1718;-86
2023/07/14 01:17:24;1484506.00;4.95;2614.00;59364.00;0.20;103.38;;;;;19.80;1.00;;;;;;2321651;55;3662;-87
2023/07/14 01:22:30;2044669.00;6.82;3716.45;87270.00;0.29;151.59;;;;;19.60;1.00;;;;;;2353539;40;3445;-86
2023/07/14 01:25:10;321075.00;1.07;554.15;28483.00;0.09;49.96;;;;;19.60;1.00;;;;;;2281301;39;3619;-86
2023/07/14 01:30:08;1459610.00;4.87;2567.35;73321.00;0.24;127.50;;;;;19.60;1.00;;;;;;2383677;39;3596;-87
2023/07/14 01:45:14;1195816.00;3.99;2082.66;121122.00;0.40;210.02;;;;;19.00;1.00;;;;;;2273861;61;1320;-88
2023/07/14 01:47:43;642705.00;2.14;1108.02;67565.00;0.23;117.55;;;;;19.10;1.00;;;;;;2278057;55;3897;-88
2023/07/14 01:50:21;848899.00;2.83;1466.54;66608.00;0.22;115.90;;;;;19.00;1.00;;;;;;2315414;40;3657;-88
2023/07/14 01:52:52;861272.00;2.87;1488.20;0.00;0.00;0.62;;;;;18.60;1.00;;;;;;2301606;56;3859;-87
2023/07/14 01:55:21;2192074.00;7.31;4026.47;0.00;0.00;0.62;;;;;18.60;1.00;;;;;;2289574;56;3702;-89
2023/07/14 02:00:21;1398072.00;4.66;2452.75;14891.00;0.05;26.42;;;;;18.60;1.00;;;;;;2282066;60;1305;-88
2023/07/14 02:02:52;882619.00;2.94;1525.61;123208.00;0.41;213.62;;;;;18.70;1.00;;;;;;2279598;60;1362;-86
2023/07/14 02:05:27;379427.00;1.26;654.44;78049.00;0.26;135.67;;;;;18.80;1.00;;;;;;2315736;40;3642;-86
2023/07/14 02:08:03;665887.00;2.22;1148.13;72848.00;0.24;126.68;;;;;18.90;1.00;;;;;;2280382;60;1692;-85
2023/07/14 02:10:31;417280.00;1.39;719.51;22869.00;0.08;40.24;;;;;19.00;1.00;;;;;;2297066;39;3607;-84
2023/07/14 02:12:59;572088.00;1.91;986.05;0.00;0.00;0.62;;;;;19.00;1.00;;;;;;2276120;60;2016;-86
2023/07/14 02:15:30;489983.00;1.63;844.58;11199.00;0.04;20.03;;;;;19.20;1.00;;;;;;2288092;39;3581;-85
2023/07/14 02:20:30;1443436.00;4.81;2537.13;0.00;0.00;0.62;;;;;19.00;1.00;;;;;;2280512;55;3658;-88
2023/07/14 02:23:01;949296.00;3.16;1642.87;98810.00;0.33;171.52;;;;;18.90;1.00;;;;;;2292948;39;3608;-88
2023/07/14 02:25:35;246383.00;0.82;425.73;0.00;0.00;0.62;;;;;18.80;1.00;;;;;;2285720;39;3604;-87
2023/07/14 02:28:02;306187.00;1.02;528.56;0.00;0.00;0.62;;;;;18.80;1.00;;;;;;2341259;40;3757;-88
2023/07/14 02:35:37;1606418.00;5.35;2845.01;0.00;0.00;0.62;;;;;18.70;1.00;;;;;;2287790;55;3648;-87
2023/07/14 02:38:10;346224.00;1.15;597.37;0.00;0.00;0.62;;;;;18.70;1.00;;;;;;2280084;60;2312;-86
2023/07/14 02:40:46;465777.00;1.55;802.92;0.00;0.00;0.62;;;;;18.70;1.00;;;;;;2372850;39;3761;-88
2023/07/14 02:43:14;366910.00;1.22;632.93;9440.00;0.03;16.98;;;;;18.90;1.00;;;;;;2303090;55;3736;-88
2023/07/14 02:48:16;1140032.00;3.80;1982.16;26016.00;0.09;45.69;;;;;18.70;1.00;;;;;;2293973;40;3732;-87
2023/07/14 02:50:44;438347.00;1.46;755.74;12888.00;0.04;22.95;;;;;18.70;1.00;;;;;;2280519;60;1475;-89
2023/07/14 02:53:11;368971.00;1.23;636.47;0.00;0.00;0.62;;;;;18.70;1.00;;;;;;2281775;39;3580;-87
2023/07/14 02:58:12;1079355.00;3.60;1873.54;0.00;0.00;0.62;;;;;18.50;1.00;;;;;;2278766;55;3648;-87
2023/07/14 03:00:38;361086.00;1.20;622.92;18674.00;0.06;32.97;;;;;18.60;1.00;;;;;;2280163;60;1746;-86
2023/07/14 03:03:06;479195.00;1.60;826.01;0.00;0.00;0.62;;;;;18.60;1.00;;;;;;2289766;39;3553;-88
2023/07/14 03:05:33;494534.00;1.65;852.41;71469.00;0.24;124.30;;;;;18.60;1.00;;;;;;2280555;60;1199;-86
2023/07/14 03:08:02;390577.00;1.30;673.61;0.00;0.00;0.62;;;;;18.50;1.00;;;;;;2280624;60;997;-86
2023/07/14 03:10:29;292993.00;0.98;505.87;0.00;0.00;0.62;;;;;18.40;1.00;;;;;;2280580;60;1187;-85
2023/07/14 03:15:25;924956.00;3.08;1599.99;0.00;0.00;0.62;;;;;18.30;1.00;;;;;;2274149;61;1430;-87
2023/07/14 03:17:52;318759.00;1.06;550.17;0.00;0.00;0.62;;;;;18.40;1.00;;;;;;2272292;61;1002;-87
2023/07/14 03:25:25;1030845.00;3.44;1787.18;0.00;0.00;0.62;;;;;18.80;1.00;;;;;;2278092;61;1382;-86
2023/07/14 03:27:52;424842.00;1.42;732.52;14893.00;0.05;26.43;;;;;18.60;1.00;;;;;;2329729;56;3771;-84
2023/07/14 03:30:20;177553.00;0.59;307.28;0.00;0.00;0.62;;;;;18.50;1.00;;;;;;2294691;39;3583;-86
2023/07/14 03:35:23;1274266.00;4.25;2225.09;0.00;0.00;0.62;;;;;18.40;1.00;;;;;;2281694;39;3490;-86
2023/07/14 03:37:50;214810.00;0.72;371.41;0.00;0.00;0.62;;;;;18.20;1.00;;;;;;2341952;39;3749;-86
2023/07/14 03:40:17;212486.00;0.71;367.41;0.00;0.00;0.62;;;;;18.30;1.00;;;;;;2329437;39;3781;-85
2023/07/14 03:42:48;274040.00;0.91;473.29;44352.00;0.15;77.42;;;;;18.20;1.00;;;;;;2294135;39;3835;-85
2023/07/14 03:45:15;251865.00;0.84;435.16;73316.00;0.24;127.49;;;;;18.10;1.00;;;;;;2280481;60;1113;-88
2023/07/14 03:47:42;269975.00;0.90;466.30;0.00;0.00;0.62;;;;;18.10;1.00;;;;;;2380511;39;3804;-86
2023/07/14 03:50:11;1226819.00;4.09;2138.78;4638.00;0.02;8.66;;;;;18.10;1.00;;;;;;2307650;39;3602;-84
2023/07/14 03:52:38;310248.00;1.03;535.54;24750.00;0.08;43.49;;;;;18.20;1.00;;;;;;2276770;60;2008;-87
2023/07/14 04:00:12;1222808.00;4.08;2131.51;0.00;0.00;0.62;;;;;18.30;1.00;;;;;;2307598;40;3557;-86
2023/07/14 04:02:39;264949.00;0.88;457.66;0.00;0.00;0.62;;;;;18.40;1.00;;;;;;2283152;39;3657;-84
2023/07/14 04:05:07;275117.00;0.92;475.14;11426.00;0.04;20.42;;;;;18.60;1.00;;;;;;2280492;60;1068;-86
2023/07/14 04:07:35;223815.00;0.75;386.91;0.00;0.00;0.62;;;;;18.70;1.00;;;;;;2280535;60;1123;-87
2023/07/14 04:10:03;78170.00;0.26;135.88;0.00;0.00;0.62;;;;;18.80;1.00;;;;;;2280496;60;1068;-86
2023/07/14 04:12:30;172862.00;0.58;299.20;10967.00;0.04;19.62;;;;;18.90;1.00;;;;;;2277041;60;2186;-86
2023/07/14 04:14:57;202582.00;0.68;350.37;0.00;0.00;0.62;;;;;18.60;1.00;;;;;;2276399;60;1168;-88
2023/07/14 04:17:29;247602.00;0.83;427.83;57299.00;0.19;99.81;;;;;18.60;1.00;;;;;;2276307;60;1165;-86
2023/07/14 04:19:56;292614.00;0.98;505.22;57908.00;0.19;100.86;;;;;18.80;1.00;;;;;;2276351;60;988;-85
2023/07/14 04:22:24;150827.00;0.50;261.23;0.00;0.00;0.62;;;;;18.90;1.00;;;;;;2276221;60;1496;-84
2023/07/14 04:24:51;173193.00;0.58;299.77;0.00;0.00;0.62;;;;;18.80;1.00;;;;;;2276137;60;1440;-84
2023/07/14 04:27:20;132942.00;0.44;230.40;0.00;0.00;0.62;;;;;18.90;1.00;;;;;;2276052;60;1094;-87
2023/07/14 04:29:47;181506.00;0.61;314.08;0.00;0.00;0.62;;;;;18.80;1.00;;;;;;2276182;60;1435;-85
2023/07/14 04:32:16;210427.00;0.70;363.87;37682.00;0.13;65.88;;;;;18.80;1.00;;;;;;2276195;60;2000;-86
2023/07/14 04:34:46;251616.00;0.84;434.73;3108.00;0.01;6.01;;;;;18.80;1.00;;;;;;2276258;60;1417;-85
2023/07/14 04:37:13;267334.00;0.89;461.76;0.00;0.00;0.62;;;;;18.80;1.00;;;;;;2276249;60;1149;-89
2023/07/14 04:39:40;181212.00;0.60;313.58;0.00;0.00;0.62;;;;;19.00;1.00;;;;;;2276291;60;1101;-87
2023/07/14 04:42:07;228245.00;0.76;394.53;19039.00;0.06;33.61;;;;;19.30;1.00;;;;;;2276310;60;1268;-87
2023/07/14 04:44:34;184734.00;0.62;319.64;73853.00;0.25;128.42;;;;;19.50;1.00;;;;;;2276308;60;1734;-87
2023/07/14 04:47:01;139899.00;0.47;242.40;0.00;0.00;0.62;;;;;19.80;1.00;;;;;;2276373;60;1040;-88
2023/07/14 04:49:30;166689.00;0.56;288.56;0.00;0.00;0.62;;;;;19.80;1.00;;;;;;2276325;60;1132;-85
2023/07/14 04:51:58;24494.00;0.08;43.05;0.00;0.00;0.62;;;;;19.80;1.00;;;;;;2276176;60;1922;-85
2023/07/14 04:54:25;32747.00;0.11;57.34;0.00;0.00;0.62;;;;;19.80;1.00;;;;;;2276263;60;1092;-85
2023/07/14 04:56:55;233317.00;0.78;403.26;43395.00;0.14;75.76;;;;;19.80;1.00;;;;;;2276312;60;1175;-85
2023/07/14 04:59:22;86244.00;0.29;149.82;0.00;0.00;0.62;;;;;19.90;1.00;;;;;;2276320;60;1136;-84
2023/07/14 05:01:49;46664.00;0.16;81.42;0.00;0.00;0.62;;;;;20.00;1.00;;;;;;2276161;60;1418;-86
2023/07/14 05:04:16;74817.00;0.25;130.08;0.00;0.00;0.62;;;;;20.10;1.00;;;;;;2276185;60;1046;-84
2023/07/14 05:06:43;218265.00;0.73;377.36;0.00;0.00;0.62;;;;;20.30;1.00;;;;;;2276151;60;1400;-85
2023/07/14 05:09:12;287718.00;0.96;496.81;0.00;0.00;0.62;;;;;20.40;1.00;;;;;;2276149;60;2262;-86
2023/07/14 05:11:40;0.00;0.00;0.62;0.00;0.00;0.62;;;;;20.50;1.00;;;;;;2276062;60;1562;-85
2023/07/14 05:14:07;57878.00;0.19;100.81;0.00;0.00;0.62;;;;;20.50;1.00;;;;;;2276149;60;1937;-85
2023/07/14 05:16:34;112888.00;0.38;195.81;0.00;0.00;0.62;;;;;20.40;1.00;;;;;;2276228;60;999;-87
2023/07/14 05:19:01;117547.00;0.39;203.85;0.00;0.00;0.62;;;;;20.30;1.00;;;;;;2276212;60;1518;-86
2023/07/14 05:21:28;0.00;0.00;0.62;0.00;0.00;0.62;;;;;20.00;1.00;;;;;;2276151;60;1297;-88
2023/07/14 05:23:55;32801.00;0.11;57.43;0.00;0.00;0.62;;;;;20.20;1.00;;;;;;2276332;60;1009;-86
2023/07/14 05:26:23;338784.00;1.13;584.58;21698.00;0.07;38.21;;;;;20.50;1.00;;;;;;2276175;60;1149;-85
2023/07/14 05:28:50;77399.00;0.26;134.54;0.00;0.00;0.62;;;;;20.70;1.00;;;;;;2276211;60;1306;-85
2023/07/14 05:31:19;118894.00;0.40;206.17;51414.00;0.17;89.63;;;;;20.90;1.00;;;;;;2276185;60;1339;-87
2023/07/14 05:33:46;104610.00;0.35;181.53;0.00;0.00;0.62;;;;;21.10;1.00;;;;;;2276124;60;1919;-84
2023/07/14 05:36:13;71293.00;0.24;123.99;0.00;0.00;0.62;;;;;21.20;1.00;;;;;;2276114;60;1117;-86
2023/07/14 05:38:39;88156.00;0.29;153.12;0.00;0.00;0.62;;;;;21.20;1.00;;;;;;2276236;60;931;-85
2023/07/14 05:41:08;193069.00;0.64;333.99;0.00;0.00;0.62;;;;;21.80;1.00;;;;;;2276826;60;1303;-86
2023/07/14 05:43:36;0.00;0.00;0.62;0.00;0.00;0.62;;;;;21.70;1.00;;;;;;2276960;60;1094;-86
2023/07/14 05:46:03;119771.00;0.40;207.69;0.00;0.00;0.62;;;;;21.70;1.00;;;;;;2276825;60;916;-85
2023/07/14 05:48:30;207473.00;0.69;358.79;0.00;0.00;0.62;;;;;22.00;1.00;;;;;;2276853;60;1132;-87
2023/07/14 05:50:58;203884.00;0.68;352.61;20070.00;0.07;35.39;;;;;22.00;1.00;;;;;;2276943;60;1305;-86
2023/07/14 05:53:26;5460.00;0.02;10.08;0.00;0.00;0.62;;;;;22.60;1.00;;;;;;2276844;60;1996;-85
2023/07/14 05:55:55;201808.00;0.67;349.04;39964.00;0.13;69.83;;;;;22.90;1.00;;;;;;2276917;60;1217;-85
2023/07/14 05:58:22;227439.00;0.76;393.14;0.00;0.00;0.62;;;;;23.50;1.00;;;;;;2276937;60;1644;-86
2023/07/14 06:00:53;272750.00;0.91;471.07;32091.00;0.11;56.20;;;;;23.60;1.00;;;;;;2276840;60;1373;-85
2023/07/14 06:03:20;162860.00;0.54;281.97;15422.00;0.05;27.34;;;;;24.00;1.00;;;;;;2276774;60;1069;-86
2023/07/14 06:05:47;103281.00;0.34;179.23;0.00;0.00;0.62;;;;;23.70;1.00;;;;;;2276847;60;1606;-86
2023/07/14 06:08:14;15946.00;0.05;28.25;0.00;0.00;0.62;;;;;23.50;1.00;;;;;;2276799;60;1151;-86
2023/07/14 06:10:41;0.00;0.00;0.62;0.00;0.00;0.62;;;;;23.40;1.00;;;;;;2276795;60;1288;-84
2023/07/14 06:13:08;122228.00;0.41;211.93;0.00;0.00;0.62;;;;;24.30;1.00;;;;;;2276920;60;2002;-85
2023/07/14 06:15:36;123477.00;0.41;214.08;0.00;0.00;0.62;;;;;26.40;1.00;;;;;;2276829;60;1085;-85
2023/07/14 06:18:05;0.00;0.00;0.62;0.00;0.00;0.62;;;;;27.30;1.00;;;;;;2276669;60;2123;-87
2023/07/14 06:20:32;120136.00;0.40;208.32;0.00;0.00;0.62;;;;;28.40;1.00;;;;;;2276755;60;1219;-87
2023/07/14 06:22:59;6579.00;0.02;12.02;0.00;0.00;0.62;;;;;29.70;1.00;;;;;;2276722;60;1497;-87
2023/07/14 06:25:26;122385.00;0.41;212.20;0.00;0.00;0.62;;;;;30.00;1.00;;;;;;2276698;60;1144;-88
2023/07/14 06:27:53;36555.00;0.12;63.93;0.00;0.00;0.62;;;;;31.20;1.00;;;;;;2276673;60;1562;-85
2023/07/14 06:30:22;183344.00;0.61;317.25;0.00;0.00;0.62;;;;;31.20;1.00;;;;;;2276618;60;1227;-87
2023/07/14 06:32:49;128194.00;0.43;222.21;0.00;0.00;0.62;;;;;32.10;1.00;;;;;;2276299;61;1916;-87
2023/07/14 06:35:17;49130.00;0.16;85.68;0.00;0.00;0.62;;;;;31.90;1.00;;;;;;2276451;60;1136;-86
2023/07/14 06:37:44;107447.00;0.36;186.42;39421.00;0.13;68.89;;;;;32.70;1.00;;;;;;2276720;60;1097;-87
2023/07/14 06:40:13;192615.00;0.64;333.21;0.00;0.00;0.62;;;;;33.40;1.00;;;;;;2276570;60;1088;-86
2023/07/14 06:42:40;79975.00;0.27;138.99;0.00;0.00;0.62;;;;;34.40;1.00;;;;;;2276427;60;1420;-87
2023/07/14 06:45:08;238752.00;0.80;412.60;30692.00;0.10;53.78;;;;;35.30;1.00;;;;;;2276711;60;1079;-89
2023/07/14 06:47:35;60621.00;0.20;105.55;0.00;0.00;0.62;;;;;35.60;1.00;;;;;;2276469;60;1765;-87
2023/07/14 06:50:03;55268.00;0.18;96.30;0.00;0.00;0.62;;;;;35.30;1.00;;;;;;2276538;60;1071;-87
2023/07/14 06:52:32;0.00;0.00;0.62;0.00;0.00;0.62;;;;;34.60;1.00;;;;;;2276384;61;1302;-86
2023/07/14 06:54:59;46123.00;0.15;80.48;0.00;0.00;0.62;;;;;35.20;1.00;;;;;;2276542;60;1928;-86
2023/07/14 06:57:26;0.00;0.00;0.62;0.00;0.00;0.62;;;;;35.50;1.00;;;;;;2276582;60;926;-87
2023/07/14 06:59:53;102522.00;0.34;177.92;0.00;0.00;0.62;;;;;35.60;1.00;;;;;;2276277;61;1274;-87
2023/07/14 07:02:20;21816.00;0.07;38.41;0.00;0.00;0.62;;;;;34.80;1.00;;;;;;2276391;60;1674;-87
2023/07/14 07:04:47;0.00;0.00;0.62;0.00;0.00;0.62;;;;;35.20;1.00;;;;;;2276622;60;1073;-86
2023/07/14 07:07:14;50508.00;0.17;88.06;0.00;0.00;0.62;;;;;35.50;1.00;;;;;;2276667;60;1157;-86
2023/07/14 07:09:42;54452.00;0.18;94.88;0.00;0.00;0.62;;;;;35.50;1.00;;;;;;2276696;60;1137;-88
2023/07/14 07:12:09;13141.00;0.04;23.39;0.00;0.00;0.62;;;;;34.90;1.00;;;;;;2276575;60;1307;-87
2023/07/14 07:14:36;306002.00;1.02;528.24;0.00;0.00;0.62;;;;;34.80;1.00;;;;;;2295296;56;3773;-87
2023/07/14 07:17:03;105005.00;0.35;182.21;0.00;0.00;0.62;;;;;34.20;1.00;;;;;;2280740;60;1192;-88
2023/07/14 07:19:32;124633.00;0.42;216.07;0.00;0.00;0.62;;;;;34.50;1.00;;;;;;2280566;60;927;-87
2023/07/14 07:21:59;465616.00;1.55;802.65;58999.00;0.20;102.75;;;;;34.50;1.00;;;;;;2278075;60;1272;-88
2023/07/14 07:24:26;68043.00;0.23;118.38;0.00;0.00;0.62;;;;;34.10;1.00;;;;;;2276646;60;1101;-87
2023/07/14 07:26:54;0.00;0.00;0.62;0.00;0.00;0.62;;;;;34.80;1.00;;;;;;2276542;60;1188;-86
2023/07/14 07:29:21;79995.00;0.27;139.03;0.00;0.00;0.62;;;;;34.60;1.00;;;;;;2276407;60;975;-87
2023/07/14 07:31:48;109084.00;0.36;189.25;0.00;0.00;0.62;;;;;35.00;1.00;;;;;;2276614;60;1368;-86
2023/07/14 07:34:15;12751.00;0.04;22.71;0.00;0.00;0.62;;;;;35.30;1.00;;;;;;2276353;60;1930;-86
2023/07/14 07:36:43;80400.00;0.27;139.73;0.00;0.00;0.62;;;;;35.40;1.00;;;;;;2276292;60;1094;-86
2023/07/14 07:39:10;376785.00;1.26;649.90;40557.00;0.14;70.85;;;;;35.40;1.00;;;;;;2276455;61;980;-87
2023/07/14 07:41:37;91166.00;0.30;158.32;0.00;0.00;0.62;;;;;35.30;1.00;;;;;;2276267;61;1401;-85
2023/07/14 07:44:08;82536.00;0.28;143.42;0.00;0.00;0.62;;;;;35.10;1.00;;;;;;2276363;61;1172;-86
2023/07/14 07:46:35;28622.00;0.10;50.20;0.00;0.00;0.62;;;;;36.00;1.00;;;;;;2276284;61;1507;-87
2023/07/14 07:49:02;89058.00;0.30;154.68;0.00;0.00;0.62;;;;;37.10;1.00;;;;;;2276298;60;1360;-86
2023/07/14 07:51:29;14319.00;0.05;25.43;0.00;0.00;0.62;;;;;36.90;1.00;;;;;;2276063;61;1294;-87
2023/07/14 07:53:56;0.00;0.00;0.62;0.00;0.00;0.62;;;;;36.40;1.00;;;;;;2276218;61;1927;-87
2023/07/14 07:56:23;69554.00;0.23;120.99;0.00;0.00;0.62;;;;;36.60;1.00;;;;;;2276153;60;1103;-86
2023/07/14 07:58:50;206870.00;0.69;357.75;0.00;0.00;0.62;;;;;37.10;1.00;;;;;;2276265;60;1224;-86
2023/07/14 08:01:21;160956.00;0.54;278.69;0.00;0.00;0.62;;;;;36.30;1.00;;;;;;2276323;60;1379;-86
2023/07/14 08:03:50;210546.00;0.70;364.07;0.00;0.00;0.62;;;;;36.50;1.00;;;;;;2276202;60;1077;-86
2023/07/14 08:06:18;638.00;0.00;1.73;0.00;0.00;0.62;;;;;36.50;1.00;;;;;;2276227;61;1090;-85
2023/07/14 08:08:45;0.00;0.00;0.62;0.00;0.00;0.62;;;;;37.10;1.00;;;;;;2276276;60;1180;-86
2023/07/14 08:11:13;10111.00;0.03;18.14;0.00;0.00;0.62;;;;;37.10;1.00;;;;;;2276209;61;1291;-86
2023/07/14 08:13:41;137220.00;0.46;237.78;0.00;0.00;0.62;;;;;36.40;1.00;;;;;;2276228;61;2001;-86
2023/07/14 08:16:08;164201.00;0.55;284.28;0.00;0.00;0.62;;;;;35.90;1.00;;;;;;2276461;60;1145;-87
2023/07/14 08:18:36;55286.00;0.18;96.33;0.00;0.00;0.62;;;;;37.10;1.00;;;;;;2276289;60;1141;-87
2023/07/14 08:21:03;25756.00;0.09;45.24;0.00;0.00;0.62;;;;;36.90;1.00;;;;;;2276385;60;1388;-86
2023/07/14 08:23:31;362160.00;1.21;624.76;51192.00;0.17;89.25;;;;;37.10;1.00;;;;;;2276240;60;1078;-90
2023/07/14 08:26:00;199788.00;0.67;345.56;0.00;0.00;0.62;;;;;36.20;1.00;;;;;;2276340;60;1136;-87
2023/07/14 08:28:28;7318.00;0.02;13.30;0.00;0.00;0.62;;;;;35.90;1.00;;;;;;2276544;60;1079;-87
2023/07/14 08:30:56;1623.00;0.01;3.43;0.00;0.00;0.62;;;;;35.90;1.00;;;;;;2276316;60;1402;-86
2023/07/14 08:33:24;180219.00;0.60;311.87;0.00;0.00;0.62;;;;;36.40;1.00;;;;;;2276378;60;1996;-86
2023/07/14 08:35:54;185862.00;0.62;321.58;0.00;0.00;0.62;;;;;35.30;1.00;;;;;;2276157;60;1271;-87
2023/07/14 08:38:22;293718.00;0.98;507.12;40794.00;0.14;71.26;;;;;35.90;1.00;;;;;;2276243;60;1108;-86
2023/07/14 08:40:54;76348.00;0.25;132.73;0.00;0.00;0.62;;;;;35.10;1.00;;;;;;2276395;60;1287;-86
2023/07/14 08:43:34;72430.00;0.24;125.96;0.00;0.00;0.62;;;;;34.70;1.00;;;;;;2276380;60;1125;-87
2023/07/14 08:46:08;421573.00;1.41;726.90;41677.00;0.14;72.79;;;;;34.90;1.00;;;;;;2276329;60;1221;-88
2023/07/14 08:48:39;219654.00;0.73;379.75;37495.00;0.12;65.55;;;;;34.80;1.00;;;;;;2276451;60;1131;-87
2023/07/14 08:51:18;537510.00;1.79;926.43;171498.00;0.57;296.85;;;;;35.40;1.00;;;;;;2276197;60;1344;-87
2023/07/14 08:53:52;0.00;0.00;0.62;0.00;0.00;0.62;;;;;34.90;1.00;;;;;;2276191;60;1928;-85
2023/07/14 08:56:21;0.00;0.00;0.62;0.00;0.00;0.62;;;;;35.50;1.00;;;;;;2275822;60;1160;-86
2023/07/14 08:58:51;124089.00;0.41;215.14;0.00;0.00;0.62;;;;;35.40;1.00;;;;;;2276232;60;1129;-86
2023/07/14 09:01:37;201409.00;0.67;348.35;0.00;0.00;0.62;;;;;34.90;1.00;;;;;;2276168;60;1325;-85
2023/07/14 09:04:10;267672.00;0.89;462.34;51584.00;0.17;89.93;;;;;34.30;1.00;;;;;;2276312;60;1180;-86
2023/07/14 09:06:39;204389.00;0.68;353.48;0.00;0.00;0.62;;;;;34.40;1.00;;;;;;2276194;60;1164;-85
2023/07/14 09:09:17;35949.00;0.12;62.88;0.00;0.00;0.62;;;;;34.40;1.00;;;;;;2276292;60;1086;-85
2023/07/14 09:11:57;204234.00;0.68;353.21;0.00;0.00;0.62;;;;;34.70;1.00;;;;;;2276081;61;1356;-85
2023/07/14 09:14:43;126367.00;0.42;219.06;0.00;0.00;0.62;;;;;34.70;1.00;;;;;;2276445;60;1988;-85
2023/07/14 09:17:18;144386.00;0.48;250.13;0.00;0.00;0.62;;;;;34.20;1.00;;;;;;2276955;60;1073;-85
2023/07/14 09:20:09;10773.00;0.04;19.29;0.00;0.00;0.62;;;;;33.60;1.00;;;;;;2276816;60;1181;-85
2023/07/14 09:22:46;36541.00;0.12;63.90;0.00;0.00;0.62;;;;;33.50;1.00;;;;;;2276996;60;1480;-86
2023/07/14 09:25:22;67443.00;0.22;117.34;0.00;0.00;0.62;;;;;34.00;1.00;;;;;;2277024;60;984;-85
2023/07/14 09:27:51;29287.00;0.10;51.35;0.00;0.00;0.62;;;;;34.30;1.00;;;;;;2276931;60;1324;-85
2023/07/14 09:30:21;18842.00;0.06;33.26;0.00;0.00;0.62;;;;;34.40;1.00;;;;;;2276864;60;1710;-83
2023/07/14 09:32:53;121269.00;0.40;210.27;0.00;0.00;0.62;;;;;34.10;1.00;;;;;;2277037;60;1413;-86
2023/07/14 09:35:22;119632.00;0.40;207.45;0.00;0.00;0.62;;;;;34.10;1.00;;;;;;2276870;60;1987;-86
2023/07/14 09:37:55;146952.00;0.49;254.55;0.00;0.00;0.62;;;;;33.80;1.00;;;;;;2276868;60;982;-86
2023/07/14 09:40:25;0.00;0.00;0.62;0.00;0.00;0.62;;;;;33.60;1.00;;;;;;2276826;60;1155;-85
2023/07/14 09:42:54;109981.00;0.37;190.80;0.00;0.00;0.62;;;;;32.90;1.00;;;;;;2277008;60;1403;-85
2023/07/14 09:45:23;112218.00;0.37;194.66;0.00;0.00;0.62;;;;;33.00;1.00;;;;;;2276745;60;927;-86
2023/07/14 09:47:56;35296.00;0.12;61.75;0.00;0.00;0.62;;;;;33.30;1.00;;;;;;2276883;61;1097;-83
2023/07/14 09:50:25;113922.00;0.38;197.60;0.00;0.00;0.62;;;;;33.30;1.00;;;;;;2276869;60;1073;-83
2023/07/14 09:53:02;37123.00;0.12;64.91;0.00;0.00;0.62;;;;;33.20;1.00;;;;;;2276836;60;1375;-85
2023/07/14 09:55:31;35740.00;0.12;62.52;0.00;0.00;0.62;;;;;32.90;1.00;;;;;;2276863;60;2002;-85
2023/07/14 09:57:58;5469.00;0.02;10.10;0.00;0.00;0.62;;;;;33.00;1.00;;;;;;2276912;60;1148;-85
2023/07/14 10:00:28;110204.00;0.37;191.18;0.00;0.00;0.62;;;;;33.30;1.00;;;;;;2276752;60;1034;-85
2023/07/14 10:03:06;141926.00;0.47;245.89;0.00;0.00;0.62;;;;;33.80;1.00;;;;;;2276681;60;1394;-84
2023/07/14 10:05:47;291439.00;0.97;503.20;5605.00;0.02;10.33;;;;;33.10;1.00;;;;;;2276922;60;1722;-86
2023/07/14 10:08:28;256325.00;0.85;442.83;0.00;0.00;0.62;;;;;33.30;1.00;;;;;;2276889;60;1789;-87
2023/07/14 10:10:58;284047.00;0.95;490.50;0.00;0.00;0.62;;;;;33.30;1.00;;;;;;2276923;60;1402;-83
2023/07/14 10:16:03;1308464.00;4.36;2287.60;0.00;0.00;0.62;;;;;32.90;1.00;;;;;;2282532;60;1896;-87
2023/07/14 10:21:06;927817.00;3.09;1605.03;0.00;0.00;0.62;;;;;32.70;1.00;;;;;;2289677;55;3794;-86
2023/07/14 10:23:35;87047.00;0.29;151.21;0.00;0.00;0.62;;;;;32.60;1.00;;;;;;2339532;39;3767;-86
2023/07/14 10:26:07;326614.00;1.09;563.67;0.00;0.00;0.62;;;;;33.20;1.00;;;;;;2330414;55;3779;-88
2023/07/14 10:28:38;372221.00;1.24;642.05;0.00;0.00;0.62;;;;;33.50;1.00;;;;;;2298073;55;3764;-89
2023/07/14 10:31:24;267558.00;0.89;462.14;0.00;0.00;0.62;;;;;32.80;1.00;;;;;;2320045;55;3758;-87
2023/07/14 10:34:09;779982.00;2.60;1346.23;0.00;0.00;0.62;;;;;32.40;1.00;;;;;;2348617;39;3755;-87
2023/07/14 10:44:19;1158754.00;3.86;2015.82;0.00;0.00;0.62;;;;;34.00;1.00;;;;;;2269791;61;1405;-87
2023/07/14 10:46:51;155173.00;0.52;268.72;0.00;0.00;0.62;;;;;34.20;1.00;;;;;;2391157;40;3570;-88
2023/07/14 10:49:25;535466.00;1.78;922.91;0.00;0.00;0.62;;;;;34.30;1.00;;;;;;2312399;40;3584;-87
2023/07/14 10:57:03;1149259.00;3.83;1998.74;0.00;0.00;0.62;;;;;34.00;1.00;;;;;;2282248;60;1394;-87
2023/07/14 11:02:21;1395124.00;4.65;2447.28;15033.00;0.05;26.67;;;;;34.00;1.00;;;;;;2283441;39;3544;-85
2023/07/14 11:04:53;373468.00;1.24;644.20;0.00;0.00;0.62;;;;;33.60;1.00;;;;;;2295476;40;3628;-85
2023/07/14 11:07:28;262708.00;0.88;453.81;0.00;0.00;0.62;;;;;33.50;1.00;;;;;;2280497;60;1139;-87
2023/07/14 11:09:55;89727.00;0.30;155.84;0.00;0.00;0.62;;;;;33.30;1.00;;;;;;2301000;39;3612;-87
2023/07/14 11:12:33;332476.00;1.11;573.74;0.00;0.00;0.62;;;;;33.30;1.00;;;;;;2277336;60;1352;-88
2023/07/14 11:15:19;210642.00;0.70;364.24;0.00;0.00;0.62;;;;;33.30;1.00;;;;;;2282822;55;3740;-86
2023/07/14 11:17:58;618259.00;2.06;1065.76;0.00;0.00;0.62;;;;;33.00;1.00;;;;;;2294950;56;3768;-85
2023/07/14 11:20:33;437578.00;1.46;754.42;77663.00;0.26;135.00;;;;;33.10;1.00;;;;;;2280508;60;1165;-85
2023/07/14 11:23:24;257752.00;0.86;445.28;0.00;0.00;0.62;;;;;32.60;1.00;;;;;;2275928;60;1452;-85
2023/07/14 11:30:56;758259.00;2.53;1308.42;0.00;0.00;0.62;;;;;33.30;1.00;;;;;;2282208;60;1447;-85
2023/07/14 11:36:05;1383169.00;4.61;2425.14;55483.00;0.18;96.67;;;;;33.10;1.00;;;;;;2278055;60;1972;-87
2023/07/14 11:41:01;1201827.00;4.01;2093.52;0.00;0.00;0.62;;;;;32.80;1.00;;;;;;2281976;60;1426;-85
2023/07/14 11:43:31;589391.00;1.96;1015.91;79884.00;0.27;138.84;;;;;32.70;1.00;;;;;;2280431;60;1679;-86
2023/07/14 11:48:33;1177158.00;3.92;2048.98;57152.00;0.19;99.55;;;;;32.40;1.00;;;;;;2302631;55;3739;-87
2023/07/14 11:51:11;246419.00;0.82;425.79;0.00;0.00;0.62;;;;;32.80;1.00;;;;;;2279770;60;1404;-88
2023/07/14 11:56:23;1683496.00;5.61;2993.40;94056.00;0.31;163.31;;;;;33.10;1.00;;;;;;2292282;39;3430;-88
2023/07/14 11:59:05;319381.00;1.06;551.23;61877.00;0.21;107.72;;;;;33.20;1.00;;;;;;2310930;56;3779;-86